Time;durP1;ratioP1;P1;durP2;ratioP2;P2;SDS_P1;SDS_P2;PMS_P1;PMS_P2;Temp;Humidity;BMP_temperature;BMP_pressure;BME280_temperature;BME280_humidity;BME280_pressure;Samples;Min_cycle;Max_cycle;Signal;HPM_P1;HPM_P2
2022/06/06 13:54:34;;;;;;;4.03;3.20;;;18.50;99.90;;;;;;5092722;27;20580;-80
2022/06/06 13:57:07;;;;;;;5.13;3.75;;;18.50;99.90;;;;;;5107615;28;20583;-80
2022/06/06 13:59:52;;;;;;;3.30;2.88;;;18.60;99.90;;;;;;5095622;28;20204;-81
2022/06/06 14:02:38;;;;;;;7.65;3.80;;;18.60;99.90;;;;;;5092898;28;20199;-81
2022/06/06 14:05:45;;;;;;;6.45;3.70;;;18.50;99.90;;;;;;5090913;28;20210;-80
2022/06/06 14:08:20;;;;;;;6.93;3.70;;;18.60;99.90;;;;;;5094825;28;20207;-80
2022/06/06 14:10:53;;;;;;;4.47;3.70;;;18.60;99.90;;;;;;5095625;28;20244;-80
2022/06/06 14:13:42;;;;;;;5.30;4.15;;;18.30;99.90;;;;;;5094807;28;20254;-79
2022/06/06 14:16:23;;;;;;;5.72;4.53;;;18.00;99.90;;;;;;5094803;28;20211;-78
2022/06/06 14:18:54;;;;;;;5.20;4.30;;;17.70;99.90;;;;;;5093470;28;20195;-81
2022/06/06 14:21:32;;;;;;;5.65;4.50;;;17.50;99.90;;;;;;5091305;28;20218;-80
2022/06/06 14:24:20;;;;;;;5.40;4.90;;;17.40;99.90;;;;;;5099636;28;20203;-82
2022/06/06 14:27:06;;;;;;;6.15;5.55;;;17.20;99.90;;;;;;5095954;28;20257;-80
2022/06/06 14:29:37;;;;;;;6.50;5.68;;;17.20;99.90;;;;;;5104628;28;20206;-80
2022/06/06 14:32:30;;;;;;;7.13;6.07;;;17.10;99.90;;;;;;5089353;28;20236;-80
2022/06/06 14:35:26;;;;;;;9.65;6.40;;;17.10;99.90;;;;;;5089951;28;21475;-80
2022/06/06 14:38:27;;;;;;;9.45;6.63;;;16.90;99.90;;;;;;5090412;28;20660;-81
2022/06/06 14:41:00;;;;;;;9.18;6.40;;;16.90;99.90;;;;;;5098771;28;20227;-80
2022/06/06 14:43:43;;;;;;;8.50;6.55;;;16.80;99.90;;;;;;5089845;28;20655;-78
2022/06/06 14:46:11;;;;;;;7.85;6.32;;;16.80;99.90;;;;;;5096073;28;20199;-80
2022/06/06 14:48:54;;;;;;;7.40;6.70;;;16.80;99.90;;;;;;5093038;28;20331;-81
2022/06/06 14:51:42;;;;;;;8.77;7.32;;;16.60;99.90;;;;;;5085364;28;20204;-81
2022/06/06 14:54:12;;;;;;;8.87;6.90;;;16.50;99.90;;;;;;5091577;28;20611;-79
2022/06/06 14:56:50;;;;;;;3.70;3.40;;;16.30;99.90;;;;;;5088356;28;20357;-78
2022/06/06 14:59:33;;;;;;;3.23;2.70;;;16.10;99.90;;;;;;5091491;28;20219;-79
2022/06/06 15:02:17;;;;;;;2.37;1.90;;;16.00;99.90;;;;;;5087417;28;20249;-80
2022/06/06 15:04:45;;;;;;;1.73;1.63;;;15.80;99.90;;;;;;5080693;28;20240;-77
2022/06/06 15:07:18;;;;;;;2.33;1.60;;;15.80;99.90;;;;;;5079814;28;20304;-78
2022/06/06 15:09:57;;;;;;;2.77;1.30;;;15.70;99.90;;;;;;5074164;28;20215;-81
2022/06/06 15:12:26;;;;;;;1.43;1.20;;;15.60;99.90;;;;;;5081884;28;20204;-80
2022/06/06 15:15:00;;;;;;;1.30;1.20;;;15.60;99.90;;;;;;5079358;28;20653;-80
2022/06/06 15:17:30;;;;;;;1.20;1.10;;;15.60;99.90;;;;;;5075585;28;20242;-81
2022/06/06 15:20:06;;;;;;;2.20;1.40;;;15.50;99.90;;;;;;5075525;28;20631;-81
2022/06/06 15:22:37;;;;;;;1.73;1.10;;;15.50;99.90;;;;;;5073690;28;20196;-78
2022/06/06 15:25:05;;;;;;;2.97;1.10;;;15.40;99.90;;;;;;5076566;28;20224;-80
2022/06/06 15:27:59;;;;;;;2.60;1.17;;;15.40;99.90;;;;;;5076891;28;20636;-78
2022/06/06 15:30:26;;;;;;;2.83;1.50;;;15.50;99.90;;;;;;5079228;28;20279;-82
2022/06/06 15:33:13;;;;;;;2.07;1.40;;;15.40;99.90;;;;;;5093430;28;20291;-82
2022/06/06 15:35:49;;;;;;;3.97;1.70;;;15.40;99.90;;;;;;5080391;28;20235;-83
2022/06/06 15:38:54;;;;;;;3.73;1.93;;;15.20;99.90;;;;;;5079173;28;20200;-80
2022/06/06 15:41:40;;;;;;;2.33;1.80;;;15.00;99.90;;;;;;5079413;28;20299;-82
2022/06/06 15:44:20;;;;;;;2.83;1.67;;;15.00;99.90;;;;;;5073434;28;20256;-80
2022/06/06 15:47:10;;;;;;;2.60;1.90;;;14.80;99.90;;;;;;5078048;28;20657;-82
2022/06/06 15:50:23;;;;;;;3.23;2.00;;;14.80;99.90;;;;;;5076548;28;20208;-81
2022/06/06 15:53:12;;;;;;;2.30;2.10;;;14.80;99.90;;;;;;5080385;28;20238;-79
2022/06/06 15:56:27;;;;;;;2.90;1.90;;;14.80;99.90;;;;;;5077034;28;20273;-79
2022/06/06 15:59:11;;;;;;;3.17;2.50;;;14.80;99.90;;;;;;5076374;28;20211;-79
2022/06/06 16:02:01;;;;;;;4.63;3.13;;;14.70;99.90;;;;;;5077023;28;20630;-77
2022/06/06 16:04:36;;;;;;;3.87;3.13;;;14.70;99.90;;;;;;5075734;28;20196;-78
2022/06/06 16:07:19;;;;;;;4.17;2.97;;;14.70;99.90;;;;;;5077615;28;20200;-85
2022/06/06 16:10:21;;;;;;;3.70;3.07;;;14.80;99.90;;;;;;5072129;28;20251;-79
2022/06/06 16:13:07;;;;;;;4.60;3.83;;;14.70;99.90;;;;;;5075194;28;20212;-81
2022/06/06 16:15:51;;;;;;;4.87;3.23;;;14.70;99.90;;;;;;5069569;28;20226;-79
2022/06/06 16:18:21;;;;;;;4.17;3.20;;;14.70;99.90;;;;;;5072280;28;20208;-79
2022/06/06 16:20:59;;;;;;;4.53;3.97;;;14.70;99.90;;;;;;5071063;28;20207;-79
2022/06/06 16:23:44;;;;;;;4.97;3.80;;;14.70;99.90;;;;;;5081218;28;20532;-80
2022/06/06 16:26:37;;;;;;;4.30;3.90;;;14.70;99.90;;;;;;5092590;28;20231;-81
2022/06/06 16:29:11;;;;;;;4.70;4.20;;;14.70;99.90;;;;;;5090783;28;20199;-81
2022/06/06 16:31:42;;;;;;;4.47;4.03;;;14.70;99.90;;;;;;5069483;28;20267;-80
2022/06/06 16:34:14;;;;;;;5.43;3.93;;;14.80;99.90;;;;;;5077273;28;20220;-79
2022/06/06 16:37:08;;;;;;;4.50;3.70;;;14.80;99.90;;;;;;5072002;28;20207;-81
2022/06/06 16:39:54;;;;;;;6.30;4.20;;;14.80;99.90;;;;;;5079038;28;20220;-82
2022/06/06 16:48:25;;;;;;;4.80;4.27;;;14.80;99.90;;;;;;5072527;28;20212;-82
2022/06/06 16:51:20;;;;;;;7.00;4.80;;;14.70;99.90;;;;;;5073172;28;20241;-82
2022/06/06 16:54:02;;;;;;;5.30;4.80;;;14.70;99.90;;;;;;5074802;28;20236;-81
2022/06/06 16:57:04;;;;;;;5.03;4.53;;;14.70;99.90;;;;;;5070475;28;20626;-82
2022/06/06 16:59:40;;;;;;;6.13;4.90;;;14.80;99.90;;;;;;5075849;28;20266;-82
2022/06/06 17:02:20;;;;;;;4.53;4.13;;;14.80;99.90;;;;;;5073287;28;20204;-82
2022/06/06 17:04:54;;;;;;;5.03;4.57;;;14.70;99.90;;;;;;5071342;28;20568;-80
2022/06/06 17:07:45;;;;;;;8.20;5.30;;;14.70;99.90;;;;;;5082143;28;20206;-80
2022/06/06 17:10:38;;;;;;;5.33;4.43;;;14.60;99.90;;;;;;5070352;28;20357;-84
2022/06/06 17:13:25;;;;;;;5.30;4.50;;;14.70;99.90;;;;;;5073607;28;21015;-81
2022/06/06 17:15:52;;;;;;;6.57;5.43;;;14.60;99.90;;;;;;5076864;28;20725;-83
2022/06/06 17:18:31;;;;;;;5.50;4.93;;;14.60;99.90;;;;;;5080910;28;20216;-79
2022/06/06 17:21:22;;;;;;;6.60;4.33;;;14.60;99.90;;;;;;5082234;28;20203;-80
2022/06/06 17:23:56;;;;;;;6.40;4.67;;;14.60;99.90;;;;;;5074329;28;20246;-79
2022/06/06 17:26:48;;;;;;;3.80;3.47;;;14.60;99.90;;;;;;5075181;28;20200;-80
2022/06/06 17:29:20;;;;;;;3.73;3.27;;;14.60;99.90;;;;;;5076535;28;20653;-82
2022/06/06 17:32:05;;;;;;;3.63;2.80;;;14.60;99.90;;;;;;5074700;28;20616;-84
2022/06/06 17:34:37;;;;;;;2.93;2.60;;;14.60;99.90;;;;;;5076099;28;20223;-82
2022/06/06 17:37:28;;;;;;;2.90;2.60;;;14.60;99.90;;;;;;5071897;28;20282;-82
2022/06/06 17:40:00;;;;;;;3.37;2.30;;;14.70;99.90;;;;;;5073812;28;20548;-82
2022/06/06 17:42:35;;;;;;;2.40;2.10;;;14.70;99.90;;;;;;5075358;28;20295;-81
2022/06/06 17:45:26;;;;;;;2.67;2.10;;;14.70;99.90;;;;;;5069786;28;20193;-84
2022/06/06 17:48:05;;;;;;;2.97;2.53;;;14.80;99.90;;;;;;5068639;28;20253;-81
2022/06/06 17:50:56;;;;;;;3.27;2.53;;;14.70;99.90;;;;;;5081634;28;20653;-82
2022/06/06 17:53:36;;;;;;;4.93;2.80;;;14.60;99.90;;;;;;5081641;28;20231;-84
2022/06/06 17:56:38;;;;;;;3.53;2.60;;;14.60;99.90;;;;;;5074764;28;20313;-81
2022/06/06 17:59:24;;;;;;;3.13;2.70;;;14.60;99.90;;;;;;5075558;28;20658;-82
2022/06/06 18:02:12;;;;;;;5.40;3.20;;;14.50;99.90;;;;;;5072238;28;20664;-83
2022/06/06 18:05:24;;;;;;;4.57;3.63;;;14.40;99.90;;;;;;5072214;28;20283;-80
2022/06/06 18:08:32;;;;;;;4.23;3.50;;;14.30;99.90;;;;;;5052789;28;20207;-82
2022/06/06 18:11:15;;;;;;;3.63;3.17;;;14.30;99.90;;;;;;5078716;28;20227;-81
2022/06/06 18:13:57;;;;;;;5.43;3.77;;;14.30;99.90;;;;;;5078582;28;20703;-84
2022/06/06 18:16:34;;;;;;;4.07;3.67;;;14.30;99.90;;;;;;5075012;28;20212;-80
2022/06/06 18:19:06;;;;;;;9.87;3.50;;;14.30;99.90;;;;;;5074985;28;20214;-83
2022/06/06 18:21:44;;;;;;;7.10;3.67;;;14.20;99.90;;;;;;5074721;28;20308;-83
2022/06/06 18:24:16;;;;;;;6.53;4.33;;;14.20;99.90;;;;;;5070749;28;20216;-83
2022/06/06 18:27:13;;;;;;;7.17;4.50;;;14.10;99.90;;;;;;5076448;28;20192;-83
2022/06/06 18:29:50;;;;;;;7.23;4.40;;;14.10;99.90;;;;;;5077799;28;20204;-84
2022/06/06 18:32:27;;;;;;;7.30;4.53;;;14.10;99.90;;;;;;5075141;28;20243;-81
2022/06/06 18:35:03;;;;;;;6.50;4.80;;;14.10;99.90;;;;;;5071493;28;20232;-82
2022/06/06 18:37:41;;;;;;;6.47;4.87;;;14.10;99.90;;;;;;5071677;28;20215;-82
2022/06/06 18:40:17;;;;;;;8.57;5.27;;;14.20;99.90;;;;;;5084815;28;20216;-80
2022/06/06 18:42:46;;;;;;;9.27;5.57;;;14.10;99.90;;;;;;5080495;28;20247;-85
2022/06/06 18:45:17;;;;;;;10.57;4.87;;;14.00;99.90;;;;;;5073535;28;20197;-84
2022/06/06 18:47:50;;;;;;;7.50;5.40;;;14.10;99.90;;;;;;5078658;28;20659;-84
2022/06/06 18:50:38;;;;;;;6.90;5.43;;;14.20;99.90;;;;;;5074049;28;20253;-81
2022/06/06 18:53:30;;;;;;;9.10;5.17;;;14.20;99.90;;;;;;5072838;28;20239;-85
2022/06/06 18:55:59;;;;;;;9.13;5.83;;;14.10;99.90;;;;;;5071945;28;20224;-84
2022/06/06 18:58:47;;;;;;;9.23;6.20;;;14.20;99.90;;;;;;5081239;28;20219;-82
2022/06/06 19:01:22;;;;;;;7.97;5.53;;;14.10;99.90;;;;;;5075229;28;20235;-83
2022/06/06 19:03:54;;;;;;;8.07;5.97;;;14.10;99.90;;;;;;5071168;28;20219;-84
2022/06/06 19:06:24;;;;;;;8.43;6.00;;;14.10;99.90;;;;;;5069050;28;20204;-82
2022/06/06 19:08:55;;;;;;;9.43;6.27;;;14.10;99.90;;;;;;5075106;28;20211;-83
2022/06/06 19:11:26;;;;;;;8.70;5.97;;;14.10;99.90;;;;;;5073935;28;20598;-83
2022/06/06 19:14:13;;;;;;;7.80;5.90;;;14.20;99.90;;;;;;5072894;28;20228;-84
2022/06/06 19:16:45;;;;;;;10.27;6.10;;;14.10;99.90;;;;;;5081199;28;20662;-83
2022/06/06 19:19:27;;;;;;;9.27;6.63;;;14.00;99.90;;;;;;5074138;28;20203;-84
2022/06/06 19:21:57;;;;;;;11.63;6.40;;;14.10;99.90;;;;;;5074641;28;20248;-83
2022/06/06 19:24:26;;;;;;;11.13;6.20;;;14.00;99.90;;;;;;5071373;28;20228;-84
2022/06/06 19:27:00;;;;;;;9.53;6.47;;;14.00;99.90;;;;;;5071761;28;20679;-84
2022/06/06 19:29:34;;;;;;;9.37;6.40;;;14.00;99.90;;;;;;5074415;28;20238;-82
2022/06/06 19:32:15;;;;;;;10.20;6.73;;;14.00;99.90;;;;;;5069360;28;20205;-81
2022/06/06 19:35:01;;;;;;;9.87;6.43;;;14.00;99.90;;;;;;5070056;28;21387;-84
2022/06/06 19:37:39;;;;;;;10.17;6.77;;;13.90;99.90;;;;;;5081041;28;20196;-79
2022/06/06 19:40:17;;;;;;;9.40;6.23;;;13.90;99.90;;;;;;5072391;28;20219;-83
2022/06/06 19:42:49;;;;;;;13.10;7.20;;;13.80;99.90;;;;;;5076143;28;20208;-81
2022/06/06 19:45:36;;;;;;;13.20;7.30;;;13.90;99.90;;;;;;5069253;28;20672;-82
2022/06/06 19:48:26;;;;;;;14.63;7.10;;;13.90;99.90;;;;;;5067802;28;20209;-83
2022/06/06 19:51:03;;;;;;;11.57;7.37;;;13.90;99.90;;;;;;5073533;28;20211;-82
2022/06/06 19:53:38;;;;;;;14.73;7.23;;;13.90;99.90;;;;;;5069393;28;20236;-84
2022/06/06 19:56:33;;;;;;;11.80;7.03;;;13.90;99.90;;;;;;5069658;28;20231;-82
2022/06/06 19:59:01;;;;;;;11.40;7.37;;;13.90;99.90;;;;;;5078755;28;20204;-83
2022/06/06 20:01:33;;;;;;;11.80;7.47;;;13.90;99.90;;;;;;5077617;28;20204;-84
2022/06/06 20:04:08;;;;;;;11.73;7.20;;;13.90;99.90;;;;;;5074241;28;20204;-81
2022/06/06 20:06:52;;;;;;;13.60;7.77;;;14.00;99.90;;;;;;5066190;28;20304;-82
2022/06/06 20:09:29;;;;;;;11.10;7.57;;;13.90;99.90;;;;;;5072802;28;20220;-81
2022/06/06 20:12:06;;;;;;;10.23;7.50;;;13.90;99.90;;;;;;5070584;28;20262;-85
2022/06/06 20:14:44;;;;;;;11.73;7.97;;;13.90;99.90;;;;;;5071205;28;20289;-83
2022/06/06 20:17:23;;;;;;;14.23;8.00;;;13.90;99.90;;;;;;5071611;28;20192;-82
2022/06/06 20:20:12;;;;;;;12.20;8.20;;;13.80;99.90;;;;;;5085961;28;20199;-82
2022/06/06 20:22:39;;;;;;;15.57;7.03;;;13.80;99.90;;;;;;5068810;28;20224;-83
2022/06/06 20:25:17;;;;;;;12.30;7.30;;;13.70;99.90;;;;;;5084312;28;20687;-83
2022/06/06 20:27:48;;;;;;;10.20;6.67;;;13.70;99.90;;;;;;5081047;28;20246;-83
2022/06/06 20:32:10;;;;;;;11.07;6.70;;;13.80;99.90;;;;;;5074999;28;20493;-84
2022/06/06 20:33:40;;;;;;;11.50;6.90;;;13.80;99.90;;;;;;5079364;28;20291;-82
2022/06/06 20:36:20;;;;;;;11.43;6.40;;;13.80;99.90;;;;;;5073266;28;20196;-84
2022/06/06 20:38:59;;;;;;;12.37;7.00;;;13.70;99.90;;;;;;5078953;28;20196;-83
2022/06/06 20:41:31;;;;;;;10.50;7.30;;;13.70;99.90;;;;;;5075593;28;20203;-83
2022/06/06 20:44:05;;;;;;;15.53;7.60;;;13.70;99.90;;;;;;5081476;28;20719;-81
2022/06/06 20:46:32;;;;;;;11.90;7.20;;;13.70;99.90;;;;;;5081091;28;20214;-84
2022/06/06 20:49:01;;;;;;;11.67;7.30;;;13.70;99.90;;;;;;5074508;28;20684;-85
2022/06/06 20:51:37;;;;;;;11.83;7.87;;;13.60;99.90;;;;;;5084278;28;20208;-83
2022/06/06 20:54:45;;;;;;;15.10;8.80;;;13.70;99.90;;;;;;5077461;28;20249;-83
2022/06/06 20:57:26;;;;;;;11.90;9.03;;;13.70;99.90;;;;;;5069804;28;20212;-82
2022/06/06 20:59:54;;;;;;;13.93;9.10;;;13.70;99.90;;;;;;5076037;28;20251;-83
2022/06/06 21:02:22;;;;;;;14.30;9.03;;;13.70;99.90;;;;;;5076190;28;20294;-84
2022/06/06 21:04:50;;;;;;;14.87;9.30;;;13.80;99.90;;;;;;5071060;28;20223;-84
2022/06/06 21:07:26;;;;;;;18.17;9.77;;;13.80;99.90;;;;;;5074110;28;20201;-82
2022/06/06 21:10:00;;;;;;;14.10;9.57;;;13.80;99.90;;;;;;5076205;28;20247;-84
2022/06/06 21:12:27;;;;;;;13.77;10.40;;;13.70;99.90;;;;;;5078724;28;20249;-83
2022/06/06 21:14:54;;;;;;;15.73;10.23;;;13.80;99.90;;;;;;5074606;28;20761;-83
2022/06/06 21:17:21;;;;;;;16.70;10.93;;;13.70;99.90;;;;;;5074662;28;20308;-85
2022/06/06 21:19:48;;;;;;;13.90;10.20;;;13.80;99.90;;;;;;5076675;28;20265;-81
2022/06/06 21:22:18;;;;;;;17.63;11.60;;;13.70;99.90;;;;;;5074490;28;20192;-83
2022/06/06 21:24:49;;;;;;;14.80;11.70;;;13.80;99.90;;;;;;5077979;28;20216;-83
2022/06/06 21:27:16;;;;;;;17.23;12.10;;;13.80;99.90;;;;;;5074059;28;20196;-82
2022/06/06 21:29:43;;;;;;;20.20;11.63;;;13.80;99.90;;;;;;5077385;28;20234;-84
2022/06/06 21:32:11;;;;;;;15.47;11.73;;;13.80;99.90;;;;;;5074985;28;20261;-83
2022/06/06 21:34:41;;;;;;;16.53;11.80;;;13.70;99.90;;;;;;5073077;28;20286;-84
2022/06/06 21:37:09;;;;;;;16.63;11.90;;;13.70;99.90;;;;;;5075480;28;20197;-85
2022/06/06 21:39:36;;;;;;;17.60;12.90;;;13.80;99.90;;;;;;5078389;28;20263;-84
2022/06/06 21:42:04;;;;;;;18.00;12.83;;;13.80;99.90;;;;;;5075121;28;20205;-80
2022/06/06 21:44:31;;;;;;;14.57;12.13;;;13.80;99.90;;;;;;5078153;28;20204;-84
2022/06/06 21:46:59;;;;;;;16.10;12.43;;;13.80;99.90;;;;;;5071266;28;20204;-83
2022/06/06 21:49:26;;;;;;;19.77;13.30;;;13.80;99.90;;;;;;5077540;28;20243;-80
2022/06/06 21:51:53;;;;;;;17.33;13.13;;;13.80;99.90;;;;;;5073230;28;20719;-83
2022/06/06 21:54:22;;;;;;;20.30;14.17;;;13.90;99.90;;;;;;5078446;28;20243;-83
2022/06/06 21:56:54;;;;;;;16.97;13.33;;;13.90;99.90;;;;;;5070627;28;20581;-83
2022/06/06 21:59:26;;;;;;;19.10;14.50;;;13.90;99.90;;;;;;5079967;28;20206;-82
2022/06/06 22:02:01;;;;;;;18.60;14.00;;;13.90;99.90;;;;;;5073006;28;20350;-83
2022/06/06 22:04:29;;;;;;;20.27;14.20;;;13.90;99.90;;;;;;5069625;28;20215;-84
2022/06/06 22:06:56;;;;;;;19.30;14.63;;;13.90;99.90;;;;;;5074101;28;20249;-83
2022/06/06 22:09:26;;;;;;;20.33;15.30;;;13.90;99.90;;;;;;5074079;28;20266;-81
2022/06/06 22:11:55;;;;;;;19.47;14.83;;;13.80;99.90;;;;;;5079030;28;20205;-82
2022/06/06 22:14:25;;;;;;;17.90;14.07;;;13.90;99.90;;;;;;5071835;28;20652;-81
2022/06/06 22:16:52;;;;;;;19.70;14.43;;;13.90;99.90;;;;;;5075926;28;20200;-82
2022/06/06 22:19:19;;;;;;;16.60;13.40;;;13.90;99.90;;;;;;5076377;28;20239;-82
2022/06/06 22:22:06;;;;;;;14.80;12.67;;;13.80;99.90;;;;;;5086657;28;20355;-82
2022/06/06 22:24:33;;;;;;;21.20;14.20;;;13.80;99.90;;;;;;5077241;28;20313;-82
2022/06/06 22:27:01;;;;;;;16.13;13.27;;;13.80;99.90;;;;;;5072854;28;20558;-83
2022/06/06 22:29:28;;;;;;;16.93;12.73;;;13.80;99.90;;;;;;5074813;28;20550;-84
2022/06/06 22:31:55;;;;;;;16.27;11.53;;;13.80;99.90;;;;;;5075635;28;20317;-82
2022/06/06 22:34:22;;;;;;;15.80;11.67;;;13.80;99.90;;;;;;5081106;28;20204;-80
2022/06/06 22:36:49;;;;;;;13.67;10.97;;;13.70;99.90;;;;;;5077796;28;20197;-83
2022/06/06 22:39:16;;;;;;;12.20;10.17;;;13.80;99.90;;;;;;5081500;28;20265;-84
2022/06/06 22:41:43;;;;;;;14.80;10.03;;;13.80;99.90;;;;;;5081069;28;20730;-82
2022/06/06 22:44:10;;;;;;;13.93;9.33;;;13.70;99.90;;;;;;5076465;28;20200;-83
2022/06/06 22:46:43;;;;;;;9.97;8.77;;;13.70;99.90;;;;;;5076704;28;20196;-83
2022/06/06 22:49:10;;;;;;;13.43;9.13;;;13.70;99.90;;;;;;5076003;28;20215;-80
2022/06/06 22:51:37;;;;;;;14.90;9.10;;;13.60;99.90;;;;;;5082830;28;20506;-83
2022/06/06 22:54:04;;;;;;;11.10;8.50;;;13.60;99.90;;;;;;5079209;28;20247;-84
2022/06/06 22:56:30;;;;;;;10.87;7.57;;;13.60;99.90;;;;;;5077992;28;20639;-84
2022/06/06 22:58:57;;;;;;;13.33;7.90;;;13.60;99.90;;;;;;5078453;28;20655;-82
2022/06/06 23:01:24;;;;;;;11.10;7.83;;;13.70;99.90;;;;;;5084076;28;20212;-81
2022/06/06 23:03:51;;;;;;;10.87;8.23;;;13.70;99.90;;;;;;5073289;28;20209;-84
2022/06/06 23:06:18;;;;;;;10.67;7.50;;;13.50;99.90;;;;;;5075144;28;20721;-82
2022/06/06 23:08:45;;;;;;;11.40;7.63;;;13.60;99.90;;;;;;5075275;28;20196;-83
2022/06/06 23:11:14;;;;;;;10.20;7.77;;;13.60;99.90;;;;;;5079615;28;20575;-82
2022/06/06 23:13:41;;;;;;;12.47;8.50;;;13.70;99.90;;;;;;5076981;28;20205;-82
2022/06/06 23:16:09;;;;;;;11.87;8.63;;;13.70;99.90;;;;;;5078693;28;20258;-86
2022/06/06 23:18:36;;;;;;;12.67;9.03;;;13.60;99.90;;;;;;5073868;28;20660;-81
2022/06/06 23:21:05;;;;;;;13.37;9.03;;;13.60;99.90;;;;;;5076370;28;20200;-85
2022/06/06 23:23:33;;;;;;;12.70;9.30;;;13.60;99.90;;;;;;5083546;28;20254;-82
2022/06/06 23:26:00;;;;;;;14.10;9.20;;;13.60;99.90;;;;;;5080434;28;20225;-82
2022/06/06 23:28:27;;;;;;;11.77;9.10;;;13.50;99.90;;;;;;5072036;28;20281;-83
2022/06/06 23:30:54;;;;;;;17.33;10.63;;;13.50;99.90;;;;;;5079761;28;20204;-84
2022/06/06 23:33:28;;;;;;;18.37;10.73;;;13.40;99.90;;;;;;5077470;28;20196;-82
2022/06/06 23:36:01;;;;;;;14.23;10.00;;;13.40;99.90;;;;;;5076562;28;20230;-83
2022/06/06 23:38:37;;;;;;;14.87;10.67;;;13.40;99.90;;;;;;5079416;28;20533;-82
2022/06/06 23:41:05;;;;;;;19.20;11.13;;;13.40;99.90;;;;;;5085373;28;20216;-82
2022/06/06 23:43:36;;;;;;;18.57;12.10;;;13.40;99.90;;;;;;5074081;28;20204;-80
2022/06/06 23:49:02;;;;;;;18.87;12.17;;;13.40;99.90;;;;;;5073739;28;20208;-83
2022/06/06 23:51:38;;;;;;;21.77;13.50;;;13.40;99.90;;;;;;5081250;28;20250;-83
2022/06/06 23:54:07;;;;;;;20.23;13.57;;;13.40;99.90;;;;;;5079323;28;20269;-84
2022/06/06 23:56:42;;;;;;;21.97;13.10;;;13.40;99.90;;;;;;5076811;28;20224;-81
2022/06/06 23:59:09;;;;;;;21.43;14.67;;;13.40;99.90;;;;;;5083192;28;20204;-81
